Wetterdaten: Woche 13.03.23 - 19.03.23 (KW11)
Datum Zeit Temp. Aussen Temp. o. S. Temp +5cm Feuchte Auss Luftdruck Regen Sonnenschein Regendauer Solar Windben Empfang
13.03.2023 00:00 10,7 C 10,0 C 6,1 C 82 % 1005,4 hPa 0,0 l/m 0,00 h 0,07 h 0 W/m 24,4 km/h (4 Bft) 96,61 %
13.03.2023 01:00 11,0 C 10,0 C 5,6 C 85 % 1004,1 hPa 0,0 l/m 0,00 h 0,43 h 0 W/m 17,5 km/h (3 Bft) 95,95 %
13.03.2023 02:00 10,7 C 9,6 C 5,5 C 90 % 1003,0 hPa 0,6 l/m 0,00 h 0,30 h 0 W/m 21,2 km/h (4 Bft) 98,00 %
13.03.2023 03:00 10,3 C 9,2 C 5,6 C 95 % 1001,8 hPa 0,4 l/m 0,00 h 0,57 h 0 W/m 21,9 km/h (4 Bft) 95,67 %
13.03.2023 04:00 10,9 C 10,1 C 6,4 C 96 % 1000,9 hPa 0,0 l/m 0,00 h 0,00 h 0 W/m 25,9 km/h (4 Bft) 99,01 %
13.03.2023 05:00 11,9 C 11,3 C 7,1 C 94 % 1000,6 hPa 0,0 l/m 0,00 h 0,00 h 0 W/m 34,0 km/h (5 Bft) 96,82 %
13.03.2023 06:00 12,4 C 11,7 C 7,5 C 93 % 1000,1 hPa 0,0 l/m 0,00 h 0,00 h 0 W/m 34,6 km/h (5 Bft) 96,92 %
13.03.2023 07:00 12,9 C 12,3 C 7,8 C 91 % 999,9 hPa 0,0 l/m 0,00 h 0,00 h 10 W/m 35,6 km/h (5 Bft) 97,06 %
13.03.2023 08:00 13,6 C 12,9 C 9,0 C 86 % 999,7 hPa 0,0 l/m 0,00 h 0,00 h 30 W/m 36,2 km/h (5 Bft) 96,55 %
13.03.2023 09:00 14,0 C 13,3 C 9,7 C 84 % 999,5 hPa 0,0 l/m 0,00 h 0,00 h 61 W/m 36,4 km/h (5 Bft) 97,65 %
13.03.2023 10:00 14,3 C 13,9 C 10,0 C 85 % 999,1 hPa 0,0 l/m 0,00 h 0,00 h 107 W/m 32,3 km/h (5 Bft) 98,86 %
13.03.2023 11:00 15,7 C 16,8 C 12,4 C 81 % 998,3 hPa 0,0 l/m 0,27 h 0,00 h 265 W/m 41,0 km/h (6 Bft) 94,59 %
13.03.2023 12:00 16,8 C 17,8 C 13,1 C 74 % 997,3 hPa 0,2 l/m 0,65 h 0,00 h 407 W/m 45,7 km/h (6 Bft) 98,96 %
13.03.2023 13:00 17,2 C 18,8 C 12,9 C 72 % 996,4 hPa 0,0 l/m 0,37 h 0,00 h 305 W/m 42,4 km/h (6 Bft) 98,27 %
13.03.2023 14:00 17,6 C 18,5 C 13,2 C 71 % 995,5 hPa 0,0 l/m 0,80 h 0,00 h 467 W/m 43,7 km/h (6 Bft) 95,62 %
13.03.2023 15:00 16,8 C 16,4 C 12,2 C 75 % 995,0 hPa 0,0 l/m 0,03 h 0,00 h 126 W/m 33,0 km/h (5 Bft) 97,93 %
13.03.2023 16:00 16,3 C 16,2 C 11,7 C 75 % 994,3 hPa 0,0 l/m 0,63 h 0,00 h 239 W/m 33,6 km/h (5 Bft) 96,87 %
13.03.2023 17:00 15,8 C 14,9 C 10,9 C 73 % 993,2 hPa 0,0 l/m 0,30 h 0,00 h 74 W/m 27,3 km/h (4 Bft) 98,16 %
13.03.2023 18:00 15,0 C 13,9 C 10,0 C 75 % 993,0 hPa 0,0 l/m 0,00 h 0,00 h 8 W/m 20,0 km/h (4 Bft) 97,50 %
13.03.2023 19:00 14,1 C 13,0 C 9,1 C 78 % 992,8 hPa 0,0 l/m 0,00 h 0,00 h 0 W/m 15,0 km/h (3 Bft) 97,23 %
13.03.2023 20:00 13,5 C 12,5 C 8,6 C 80 % 992,3 hPa 0,0 l/m 0,00 h 0,00 h 0 W/m 14,7 km/h (3 Bft) 96,45 %
13.03.2023 21:00 12,7 C 11,5 C 7,7 C 83 % 992,0 hPa 0,0 l/m 0,00 h 0,00 h 0 W/m 10,1 km/h (2 Bft) 98,44 %
13.03.2023 22:00 11,8 C 10,9 C 7,2 C 86 % 991,9 hPa 0,0 l/m 0,00 h 0,00 h 0 W/m 16,4 km/h (3 Bft) 94,71 %
13.03.2023 23:00 11,5 C 10,6 C 7,0 C 86 % 991,9 hPa 0,0 l/m 0,00 h 0,00 h 0 W/m 20,3 km/h (4 Bft) 96,44 %
14.03.2023 00:00 11,2 C 10,4 C 6,9 C 86 % 991,6 hPa 0,0 l/m 0,00 h 0,00 h 0 W/m 23,8 km/h (4 Bft) 98,90 %
14.03.2023 01:00 10,8 C 9,3 C 5,7 C 88 % 991,5 hPa 1,6 l/m 0,00 h 0,67 h 0 W/m 32,3 km/h (5 Bft) 95,01 %
14.03.2023 02:00 9,7 C 8,4 C 4,5 C 92 % 991,5 hPa 0,0 l/m 0,00 h 0,13 h 0 W/m 27,4 km/h (4 Bft) 99,02 %
14.03.2023 03:00 9,8 C 8,9 C 4,9 C 91 % 991,2 hPa 0,0 l/m 0,00 h 0,00 h 0 W/m 23,3 km/h (4 Bft) 96,73 %
14.03.2023 04:00 9,8 C 8,8 C 4,9 C 91 % 990,9 hPa 0,8 l/m 0,00 h 0,47 h 0 W/m 23,0 km/h (4 Bft) 97,58 %
14.03.2023 05:00 8,9 C 7,3 C 4,4 C 94 % 990,6 hPa 3,4 l/m 0,00 h 0,80 h 0 W/m 22,2 km/h (4 Bft) 97,37 %
14.03.2023 06:00 8,7 C 7,6 C 4,8 C 96 % 989,9 hPa 0,2 l/m 0,00 h 0,27 h 1 W/m 15,2 km/h (3 Bft) 98,18 %
14.03.2023 07:00 9,2 C 8,3 C 5,1 C 97 % 989,8 hPa 0,0 l/m 0,07 h 0,63 h 33 W/m 26,4 km/h (4 Bft) 96,16 %
14.03.2023 08:00 9,6 C 8,9 C 5,7 C 97 % 990,0 hPa 0,2 l/m 0,10 h 0,13 h 74 W/m 21,8 km/h (4 Bft) 77,90 %
14.03.2023 09:00 10,3 C 9,8 C 6,2 C 96 % 990,5 hPa 0,2 l/m 0,07 h 0,60 h 108 W/m 23,5 km/h (4 Bft) 97,72 %
14.03.2023 10:00 8,5 C 7,6 C 4,6 C 95 % 992,4 hPa 1,4 l/m 0,00 h 1,00 h 97 W/m 25,3 km/h (4 Bft) 89,26 %
14.03.2023 11:00 7,6 C 6,8 C 3,9 C 95 % 994,8 hPa 0,4 l/m 0,00 h 0,73 h 95 W/m 26,4 km/h (4 Bft) 96,33 %
14.03.2023 12:00 6,8 C 6,3 C 3,1 C 94 % 997,4 hPa 0,0 l/m 0,00 h 0,20 h 102 W/m 25,9 km/h (4 Bft) 99,19 %
14.03.2023 13:00 6,5 C 6,2 C 2,5 C 91 % 999,6 hPa 0,4 l/m 0,07 h 0,50 h 156 W/m 27,0 km/h (4 Bft) 95,08 %
14.03.2023 14:00 6,2 C 7,0 C 3,2 C 90 % 1001,3 hPa 0,0 l/m 0,23 h 0,13 h 235 W/m 23,3 km/h (4 Bft) 97,01 %
14.03.2023 15:00 7,9 C 9,1 C 4,6 C 75 % 1002,4 hPa 0,0 l/m 0,73 h 0,00 h 267 W/m 25,3 km/h (4 Bft) 98,75 %
14.03.2023 16:00 7,9 C 8,1 C 4,2 C 65 % 1004,1 hPa 0,0 l/m 0,47 h 0,00 h 165 W/m 22,9 km/h (4 Bft) 95,66 %
14.03.2023 17:00 7,1 C 6,5 C 3,1 C 64 % 1005,7 hPa 0,0 l/m 0,00 h 0,00 h 55 W/m 21,9 km/h (4 Bft) 97,42 %
14.03.2023 18:00 6,2 C 5,5 C 2,1 C 66 % 1007,3 hPa 0,0 l/m 0,00 h 0,00 h 9 W/m 20,8 km/h (4 Bft) 99,00 %
14.03.2023 19:00 5,3 C 4,5 C 1,2 C 70 % 1008,9 hPa 0,0 l/m 0,00 h 0,00 h 0 W/m 12,4 km/h (3 Bft) 95,62 %
14.03.2023 20:00 4,7 C 4,0 C 0,6 C 73 % 1010,0 hPa 0,0 l/m 0,00 h 0,00 h 0 W/m 8,5 km/h (2 Bft) 97,47 %
14.03.2023 21:00 4,3 C 3,4 C 0,0 C 74 % 1010,8 hPa 0,0 l/m 0,00 h 0,00 h 0 W/m 5,4 km/h (1 Bft) 98,65 %
14.03.2023 22:00 3,2 C 2,2 C -0,7 C 77 % 1011,3 hPa 0,0 l/m 0,00 h 0,00 h 0 W/m 6,7 km/h (2 Bft) 97,23 %
14.03.2023 23:00 2,8 C 1,9 C -1,0 C 80 % 1011,6 hPa 0,0 l/m 0,00 h 0,00 h 0 W/m 11,2 km/h (2 Bft) 96,31 %
15.03.2023 00:00 3,2 C 2,8 C -0,6 C 83 % 1012,0 hPa 0,0 l/m 0,00 h 0,00 h 0 W/m 16,7 km/h (3 Bft) 97,91 %
15.03.2023 01:00 3,1 C 2,4 C -1,0 C 89 % 1012,7 hPa 0,2 l/m 0,00 h 0,47 h 0 W/m 13,4 km/h (3 Bft) 97,23 %
15.03.2023 02:00 2,9 C 2,2 C -1,1 C 93 % 1013,0 hPa 0,0 l/m 0,00 h 0,00 h 0 W/m 3,6 km/h (1 Bft) 95,79 %
15.03.2023 03:00 2,8 C 2,3 C -1,1 C 94 % 1013,1 hPa 0,0 l/m 0,00 h 0,00 h 0 W/m 10,4 km/h (2 Bft) 96,99 %
15.03.2023 04:00 2,5 C 1,8 C -1,1 C 94 % 1013,8 hPa 0,4 l/m 0,00 h 0,60 h 0 W/m 11,9 km/h (2 Bft) 95,32 %
15.03.2023 05:00 2,2 C 1,7 C -1,6 C 95 % 1014,6 hPa 0,2 l/m 0,00 h 0,33 h 0 W/m 9,2 km/h (2 Bft) 97,17 %
15.03.2023 06:00 2,0 C 1,6 C -1,7 C 96 % 1015,4 hPa 0,0 l/m 0,00 h 0,00 h 0 W/m 7,4 km/h (2 Bft) 97,21 %
15.03.2023 07:00 2,3 C 1,9 C -1,1 C 96 % 1016,1 hPa 0,0 l/m 0,00 h 0,00 h 17 W/m 5,6 km/h (1 Bft) 97,37 %
15.03.2023 08:00 2,7 C 2,7 C -0,6 C 97 % 1017,2 hPa 0,0 l/m 0,00 h 0,00 h 67 W/m 5,7 km/h (1 Bft) 98,22 %
15.03.2023 09:00 3,5 C 5,4 C 0,8 C 96 % 1018,1 hPa 0,0 l/m 0,27 h 0,00 h 175 W/m 7,1 km/h (2 Bft) 95,80 %
15.03.2023 10:00 5,1 C 9,9 C 4,0 C 89 % 1018,8 hPa 0,0 l/m 0,50 h 0,00 h 286 W/m 5,5 km/h (1 Bft) 93,92 %
15.03.2023 11:00 6,6 C 10,9 C 5,5 C 78 % 1019,0 hPa 0,0 l/m 0,33 h 0,00 h 301 W/m 6,7 km/h (2 Bft) 96,92 %
15.03.2023 12:00 6,6 C 9,7 C 3,0 C 74 % 1019,4 hPa 0,2 l/m 0,37 h 0,10 h 353 W/m 6,2 km/h (2 Bft) 95,25 %
15.03.2023 13:00 8,3 C 15,6 C 4,1 C 68 % 1019,5 hPa 0,0 l/m 0,70 h 0,00 h 519 W/m 6,7 km/h (2 Bft) 99,22 %
15.03.2023 14:00 9,9 C 14,1 C 4,9 C 59 % 1019,3 hPa 0,0 l/m 0,87 h 0,00 h 570 W/m 10,8 km/h (2 Bft) 98,86 %
15.03.2023 15:00 9,6 C 11,0 C 4,8 C 57 % 1019,5 hPa 0,0 l/m 0,90 h 0,00 h 316 W/m 8,0 km/h (2 Bft) 95,30 %
15.03.2023 16:00 9,2 C 9,9 C 4,4 C 55 % 1019,5 hPa 0,0 l/m 0,97 h 0,00 h 198 W/m 6,4 km/h (2 Bft) 98,51 %
15.03.2023 17:00 8,2 C 7,6 C 3,5 C 59 % 1019,4 hPa 0,0 l/m 0,20 h 0,00 h 74 W/m 7,9 km/h (2 Bft) 95,87 %
15.03.2023 18:00 7,1 C 5,8 C 2,3 C 63 % 1019,7 hPa 0,0 l/m 0,00 h 0,00 h 13 W/m 6,2 km/h (2 Bft) 97,37 %
15.03.2023 19:00 5,9 C 4,7 C 1,4 C 69 % 1020,1 hPa 0,0 l/m 0,00 h 0,00 h 0 W/m 4,1 km/h (1 Bft) 98,50 %
15.03.2023 20:00 5,2 C 4,3 C 1,0 C 73 % 1020,2 hPa 0,0 l/m 0,00 h 0,00 h 0 W/m 3,2 km/h (1 Bft) 96,86 %
15.03.2023 21:00 4,8 C 3,9 C 0,6 C 76 % 1020,3 hPa 0,0 l/m 0,00 h 0,00 h 0 W/m 7,3 km/h (2 Bft) 97,27 %
15.03.2023 22:00 4,4 C 3,5 C 0,2 C 78 % 1020,1 hPa 0,0 l/m 0,00 h 0,00 h 0 W/m 9,8 km/h (2 Bft) 97,66 %
15.03.2023 23:00 3,8 C 3,0 C -0,3 C 80 % 1019,8 hPa 0,0 l/m 0,00 h 0,00 h 0 W/m 10,6 km/h (2 Bft) 98,11 %
16.03.2023 00:00 3,3 C 2,6 C -0,7 C 81 % 1019,8 hPa 0,0 l/m 0,00 h 0,00 h 0 W/m 14,0 km/h (3 Bft) 92,52 %
16.03.2023 01:00 3,0 C 2,2 C -1,1 C 83 % 1019,6 hPa 0,0 l/m 0,00 h 0,00 h 0 W/m 15,5 km/h (3 Bft) 98,64 %
16.03.2023 02:00 2,9 C 2,2 C -1,1 C 83 % 1019,0 hPa 0,0 l/m 0,00 h 0,00 h 0 W/m 17,5 km/h (3 Bft) 97,24 %
16.03.2023 03:00 2,9 C 2,2 C -1,1 C 83 % 1018,4 hPa 0,0 l/m 0,00 h 0,00 h 0 W/m 16,5 km/h (3 Bft) 96,86 %
16.03.2023 04:00 2,9 C 2,2 C -1,1 C 83 % 1017,8 hPa 0,0 l/m 0,00 h 0,00 h 0 W/m 18,1 km/h (3 Bft) 97,16 %
16.03.2023 05:00 3,1 C 2,8 C -1,1 C 82 % 1017,6 hPa 0,0 l/m 0,00 h 0,00 h 0 W/m 17,8 km/h (3 Bft) 99,21 %
16.03.2023 06:00 3,1 C 2,8 C -1,0 C 83 % 1017,3 hPa 0,0 l/m 0,00 h 0,00 h 5 W/m 17,3 km/h (3 Bft) 96,10 %
16.03.2023 07:00 3,4 C 3,0 C -0,5 C 83 % 1017,4 hPa 0,0 l/m 0,10 h 0,00 h 34 W/m 18,3 km/h (3 Bft) 97,41 %
16.03.2023 08:00 4,1 C 3,9 C 0,3 C 82 % 1017,6 hPa 0,0 l/m 0,00 h 0,00 h 82 W/m 20,6 km/h (4 Bft) 97,78 %
16.03.2023 09:00 5,1 C 5,1 C 1,2 C 81 % 1017,5 hPa 0,0 l/m 0,00 h 0,00 h 131 W/m 20,7 km/h (4 Bft) 96,09 %
16.03.2023 10:00 6,1 C 6,5 C 2,4 C 80 % 1017,2 hPa 0,0 l/m 0,03 h 0,03 h 212 W/m 19,4 km/h (3 Bft) 95,80 %
16.03.2023 11:00 7,8 C 8,8 C 4,5 C 73 % 1016,6 hPa 0,0 l/m 0,77 h 0,00 h 334 W/m 23,6 km/h (4 Bft) 98,72 %
16.03.2023 12:00 9,6 C 11,6 C 6,4 C 68 % 1015,9 hPa 0,0 l/m 0,87 h 0,00 h 447 W/m 26,3 km/h (4 Bft) 95,94 %
16.03.2023 13:00 10,6 C 11,3 C 6,7 C 66 % 1014,9 hPa 0,0 l/m 0,97 h 0,00 h 329 W/m 27,6 km/h (4 Bft) 98,21 %
16.03.2023 14:00 11,9 C 14,1 C 7,6 C 64 % 1014,1 hPa 0,0 l/m 1,00 h 0,00 h 542 W/m 25,0 km/h (4 Bft) 97,56 %
16.03.2023 15:00 12,9 C 14,3 C 8,2 C 61 % 1013,1 hPa 0,0 l/m 1,00 h 0,00 h 456 W/m 28,6 km/h (4 Bft) 97,01 %
16.03.2023 16:00 12,8 C 13,3 C 7,7 C 60 % 1012,3 hPa 0,0 l/m 0,90 h 0,00 h 240 W/m 26,2 km/h (4 Bft) 97,07 %
16.03.2023 17:00 11,8 C 11,2 C 7,0 C 63 % 1011,7 hPa 0,0 l/m 0,47 h 0,00 h 87 W/m 21,3 km/h (4 Bft) 96,71 %
16.03.2023 18:00 10,8 C 9,8 C 5,9 C 68 % 1011,8 hPa 0,0 l/m 0,00 h 0,00 h 20 W/m 21,3 km/h (4 Bft) 97,29 %
16.03.2023 19:00 9,9 C 9,0 C 5,2 C 71 % 1011,8 hPa 0,0 l/m 0,00 h 0,00 h 0 W/m 22,7 km/h (4 Bft) 96,67 %
16.03.2023 20:00 9,4 C 8,5 C 4,8 C 71 % 1011,8 hPa 0,0 l/m 0,00 h 0,00 h 0 W/m 23,3 km/h (4 Bft) 98,33 %
16.03.2023 21:00 9,0 C 8,2 C 4,4 C 71 % 1011,1 hPa 0,0 l/m 0,00 h 0,00 h 0 W/m 23,0 km/h (4 Bft) 95,45 %
16.03.2023 22:00 8,8 C 7,8 C 4,4 C 71 % 1010,5 hPa 0,0 l/m 0,00 h 0,00 h 0 W/m 24,7 km/h (4 Bft) 97,52 %
16.03.2023 23:00 8,7 C 7,8 C 4,0 C 71 % 1010,0 hPa 0,0 l/m 0,00 h 0,00 h 0 W/m 25,6 km/h (4 Bft) 95,98 %
17.03.2023 00:00 8,7 C 7,8 C 4,1 C 70 % 1009,9 hPa 0,0 l/m 0,00 h 0,00 h 0 W/m 22,0 km/h (4 Bft) 99,21 %
17.03.2023 01:00 8,4 C 7,5 C 3,6 C 71 % 1010,2 hPa 0,0 l/m 0,00 h 0,00 h 0 W/m 18,7 km/h (3 Bft) 94,10 %
17.03.2023 02:00 8,3 C 7,4 C 3,8 C 72 % 1009,3 hPa 0,0 l/m 0,00 h 0,00 h 0 W/m 21,8 km/h (4 Bft) 97,82 %
17.03.2023 03:00 7,9 C 6,9 C 3,3 C 74 % 1009,1 hPa 0,0 l/m 0,00 h 0,00 h 0 W/m 16,2 km/h (3 Bft) 98,36 %
17.03.2023 04:00 7,5 C 6,7 C 2,8 C 75 % 1008,9 hPa 0,0 l/m 0,00 h 0,00 h 0 W/m 16,2 km/h (3 Bft) 95,87 %
17.03.2023 05:00 7,3 C 6,7 C 2,8 C 76 % 1009,0 hPa 0,0 l/m 0,00 h 0,00 h 0 W/m 15,8 km/h (3 Bft) 98,04 %
17.03.2023 06:00 7,3 C 6,6 C 2,8 C 75 % 1008,9 hPa 0,0 l/m 0,00 h 0,00 h 6 W/m 18,2 km/h (3 Bft) 98,30 %
17.03.2023 07:00 7,3 C 6,9 C 3,0 C 75 % 1008,8 hPa 0,0 l/m 0,00 h 0,00 h 45 W/m 17,8 km/h (3 Bft) 95,97 %
17.03.2023 08:00 8,4 C 8,5 C 4,1 C 73 % 1008,9 hPa 0,0 l/m 0,00 h 0,00 h 117 W/m 19,3 km/h (3 Bft) 98,30 %
17.03.2023 09:00 9,7 C 10,6 C 5,8 C 71 % 1008,9 hPa 0,0 l/m 0,33 h 0,00 h 189 W/m 18,9 km/h (3 Bft) 96,74 %
17.03.2023 10:00 12,0 C 15,3 C 9,8 C 66 % 1008,7 hPa 0,0 l/m 1,00 h 0,00 h 373 W/m 20,5 km/h (4 Bft) 94,43 %
17.03.2023 11:00 13,8 C 16,8 C 11,7 C 62 % 1008,7 hPa 0,0 l/m 0,93 h 0,00 h 429 W/m 19,8 km/h (4 Bft) 98,68 %
17.03.2023 12:00 15,2 C 16,8 C 11,8 C 61 % 1008,3 hPa 0,0 l/m 1,00 h 0,00 h 425 W/m 20,3 km/h (4 Bft) 97,50 %
17.03.2023 13:00 16,7 C 18,6 C 12,3 C 58 % 1007,8 hPa 0,0 l/m 0,97 h 0,00 h 403 W/m 17,5 km/h (3 Bft) 96,83 %
17.03.2023 14:00 16,8 C 17,3 C 12,2 C 58 % 1007,4 hPa 0,0 l/m 0,93 h 0,00 h 303 W/m 17,2 km/h (3 Bft) 97,87 %
17.03.2023 15:00 17,2 C 17,8 C 12,6 C 58 % 1007,0 hPa 0,0 l/m 0,97 h 0,00 h 299 W/m 17,8 km/h (3 Bft) 96,23 %
17.03.2023 16:00 17,0 C 16,5 C 12,0 C 59 % 1006,8 hPa 0,0 l/m 0,13 h 0,00 h 145 W/m 20,9 km/h (4 Bft) 96,94 %
17.03.2023 17:00 15,9 C 14,9 C 11,0 C 63 % 1006,8 hPa 0,0 l/m 0,00 h 0,00 h 54 W/m 20,9 km/h (4 Bft) 87,62 %
17.03.2023 18:00 14,8 C 13,8 C 9,8 C 63 % 1007,4 hPa 0,0 l/m 0,00 h 0,03 h 15 W/m 17,1 km/h (3 Bft) 93,25 %
17.03.2023 19:00 13,9 C 12,9 C 9,0 C 67 % 1008,0 hPa 0,0 l/m 0,00 h 0,00 h 0 W/m 17,3 km/h (3 Bft) 97,29 %
17.03.2023 20:00 13,2 C 12,2 C 8,5 C 70 % 1008,0 hPa 0,0 l/m 0,00 h 0,00 h 0 W/m 12,7 km/h (3 Bft) 96,76 %
17.03.2023 21:00 12,7 C 11,7 C 7,8 C 73 % 1008,3 hPa 0,0 l/m 0,00 h 0,00 h 0 W/m 10,7 km/h (2 Bft) 96,01 %
17.03.2023 22:00 12,6 C 12,0 C 7,9 C 74 % 1008,5 hPa 0,0 l/m 0,00 h 0,00 h 0 W/m 7,8 km/h (2 Bft) 98,14 %
17.03.2023 23:00 12,5 C 11,7 C 7,7 C 76 % 1008,6 hPa 0,0 l/m 0,00 h 0,07 h 0 W/m 8,8 km/h (2 Bft) 96,23 %
18.03.2023 00:00 11,8 C 10,7 C 6,9 C 82 % 1009,0 hPa 0,0 l/m 0,00 h 0,00 h 0 W/m 8,9 km/h (2 Bft) 98,10 %
18.03.2023 01:00 11,0 C 10,0 C 6,6 C 84 % 1009,0 hPa 0,0 l/m 0,00 h 0,00 h 0 W/m 8,0 km/h (2 Bft) 96,64 %
18.03.2023 02:00 10,7 C 9,6 C 5,7 C 87 % 1009,1 hPa 0,2 l/m 0,00 h 0,17 h 0 W/m 5,0 km/h (1 Bft) 97,36 %
18.03.2023 03:00 10,1 C 8,7 C 4,8 C 88 % 1009,0 hPa 0,0 l/m 0,00 h 0,00 h 0 W/m 2,7 km/h (1 Bft) 97,32 %
18.03.2023 04:00 9,2 C 7,9 C 4,5 C 90 % 1009,2 hPa 0,0 l/m 0,00 h 0,00 h 0 W/m 2,1 km/h (1 Bft) 97,77 %
18.03.2023 05:00 9,1 C 8,6 C 5,0 C 92 % 1009,8 hPa 0,0 l/m 0,00 h 0,00 h 0 W/m 4,1 km/h (1 Bft) 98,52 %
18.03.2023 06:00 9,3 C 8,4 C 4,9 C 93 % 1010,1 hPa 0,0 l/m 0,00 h 0,00 h 6 W/m 3,6 km/h (1 Bft) 95,67 %
18.03.2023 07:00 9,0 C 8,1 C 4,5 C 93 % 1010,5 hPa 0,0 l/m 0,00 h 0,00 h 21 W/m 3,9 km/h (1 Bft) 99,08 %
18.03.2023 08:00 9,7 C 10,8 C 6,3 C 94 % 1010,9 hPa 0,0 l/m 0,10 h 0,00 h 96 W/m 6,1 km/h (2 Bft) 83,83 %
18.03.2023 09:00 12,7 C 17,8 C 9,1 C 88 % 1011,3 hPa 0,0 l/m 0,93 h 0,00 h 301 W/m 11,9 km/h (2 Bft) 88,86 %
18.03.2023 10:00 15,5 C 21,0 C 14,6 C 76 % 1011,5 hPa 0,0 l/m 0,97 h 0,00 h 448 W/m 13,6 km/h (3 Bft) 97,80 %
18.03.2023 11:00 17,6 C 26,6 C 19,3 C 70 % 1011,3 hPa 0,0 l/m 1,00 h 0,00 h 661 W/m 11,5 km/h (2 Bft) 97,58 %
18.03.2023 12:00 17,3 C 18,3 C 14,0 C 69 % 1011,3 hPa 0,0 l/m 0,33 h 0,00 h 293 W/m 16,4 km/h (3 Bft) 98,46 %
18.03.2023 13:00 17,4 C 18,3 C 13,3 C 68 % 1011,1 hPa 0,0 l/m 0,43 h 0,00 h 300 W/m 16,2 km/h (3 Bft) 95,41 %
18.03.2023 14:00 16,4 C 15,1 C 10,4 C 73 % 1011,1 hPa 0,8 l/m 0,00 h 0,53 h 105 W/m 14,5 km/h (3 Bft) 95,05 %
18.03.2023 15:00 15,2 C 17,6 C 8,9 C 83 % 1010,8 hPa 0,0 l/m 0,77 h 0,00 h 362 W/m 5,1 km/h (1 Bft) 99,21 %
18.03.2023 16:00 17,1 C 18,8 C 9,4 C 75 % 1010,5 hPa 0,0 l/m 0,60 h 0,00 h 230 W/m 8,8 km/h (2 Bft) 95,59 %
18.03.2023 17:00 16,6 C 16,0 C 11,0 C 75 % 1010,5 hPa 0,0 l/m 0,60 h 0,00 h 114 W/m 8,6 km/h (2 Bft) 97,44 %
18.03.2023 18:00 16,0 C 14,0 C 10,0 C 77 % 1010,8 hPa 0,0 l/m 0,00 h 0,00 h 12 W/m 4,8 km/h (1 Bft) 98,11 %
18.03.2023 19:00 14,2 C 12,3 C 8,1 C 81 % 1011,1 hPa 0,0 l/m 0,00 h 0,00 h 0 W/m 2,7 km/h (1 Bft) 96,37 %
18.03.2023 20:00 12,9 C 11,9 C 7,9 C 81 % 1011,4 hPa 0,0 l/m 0,00 h 0,00 h 0 W/m 3,7 km/h (1 Bft) 97,50 %
18.03.2023 21:00 12,5 C 11,7 C 7,8 C 79 % 1011,8 hPa 0,0 l/m 0,00 h 0,00 h 0 W/m 5,4 km/h (1 Bft) 97,72 %
18.03.2023 22:00 12,2 C 11,2 C 7,3 C 79 % 1012,1 hPa 0,0 l/m 0,00 h 0,00 h 0 W/m 6,1 km/h (2 Bft) 97,37 %
18.03.2023 23:00 12,1 C 11,1 C 7,2 C 80 % 1011,9 hPa 0,0 l/m 0,00 h 0,07 h 0 W/m 3,2 km/h (1 Bft) 97,79 %
19.03.2023 00:00 11,6 C 10,3 C 5,7 C 86 % 1011,9 hPa 1,8 l/m 0,00 h 0,67 h 0 W/m 11,2 km/h (2 Bft) 97,20 %
19.03.2023 01:00 11,0 C 9,5 C 5,5 C 90 % 1012,0 hPa 0,2 l/m 0,00 h 0,10 h 0 W/m 4,4 km/h (1 Bft) 96,58 %
19.03.2023 02:00 10,0 C 8,9 C 5,0 C 92 % 1011,9 hPa 0,0 l/m 0,00 h 0,00 h 0 W/m 5,5 km/h (1 Bft) 95,65 %
19.03.2023 03:00 9,8 C 9,4 C 5,1 C 94 % 1011,8 hPa 0,0 l/m 0,00 h 0,00 h 0 W/m 5,1 km/h (1 Bft) 98,93 %
19.03.2023 04:00 9,6 C 8,8 C 5,0 C 94 % 1011,9 hPa 0,0 l/m 0,00 h 0,00 h 0 W/m 3,4 km/h (1 Bft) 95,82 %
19.03.2023 05:00 9,7 C 9,3 C 5,1 C 94 % 1012,3 hPa 0,0 l/m 0,00 h 0,00 h 0 W/m 6,6 km/h (2 Bft) 96,31 %
19.03.2023 06:00 10,3 C 9,5 C 5,6 C 93 % 1012,6 hPa 0,2 l/m 0,00 h 0,30 h 7 W/m 9,0 km/h (2 Bft) 96,43 %
19.03.2023 07:00 10,2 C 9,4 C 5,6 C 95 % 1013,0 hPa 0,0 l/m 0,00 h 0,00 h 18 W/m 9,1 km/h (2 Bft) 97,53 %
19.03.2023 08:00 10,6 C 10,7 C 6,2 C 95 % 1013,4 hPa 0,0 l/m 0,00 h 0,00 h 88 W/m 9,7 km/h (2 Bft) 95,93 %
19.03.2023 09:00 11,8 C 13,1 C 7,2 C 94 % 1013,7 hPa 0,0 l/m 0,43 h 0,40 h 220 W/m 12,2 km/h (3 Bft) 96,55 %
19.03.2023 10:00 12,3 C 12,6 C 7,5 C 92 % 1014,2 hPa 0,0 l/m 0,10 h 0,10 h 164 W/m 8,9 km/h (2 Bft) 99,50 %
19.03.2023 11:00 13,3 C 14,9 C 10,3 C 88 % 1014,4 hPa 0,0 l/m 0,10 h 0,00 h 210 W/m 8,6 km/h (2 Bft) 96,30 %
19.03.2023 12:00 13,2 C 13,1 C 9,2 C 81 % 1014,6 hPa 0,0 l/m 0,00 h 0,00 h 143 W/m 6,6 km/h (2 Bft) 97,60 %
19.03.2023 13:00 14,2 C 15,4 C 10,3 C 78 % 1014,6 hPa 0,0 l/m 0,13 h 0,00 h 205 W/m 4,7 km/h (1 Bft) 97,03 %
19.03.2023 14:00 14,3 C 13,4 C 9,2 C 79 % 1014,6 hPa 0,2 l/m 0,00 h 0,20 h 54 W/m 5,0 km/h (1 Bft) 99,15 %
19.03.2023 15:00 14,0 C 13,9 C 9,1 C 84 % 1014,6 hPa 0,0 l/m 0,00 h 0,00 h 132 W/m 3,4 km/h (1 Bft) 96,74 %
19.03.2023 16:00 14,2 C 14,1 C 9,5 C 83 % 1014,8 hPa 0,0 l/m 0,00 h 0,00 h 93 W/m 3,5 km/h (1 Bft) 97,01 %
19.03.2023 17:00 14,1 C 13,3 C 9,2 C 80 % 1015,2 hPa 0,0 l/m 0,00 h 0,00 h 52 W/m 2,6 km/h (1 Bft) 97,72 %
19.03.2023 18:00 13,4 C 12,2 C 8,5 C 82 % 1016,1 hPa 0,0 l/m 0,00 h 0,00 h 10 W/m 3,9 km/h (1 Bft) 97,20 %
19.03.2023 19:00 12,5 C 11,2 C 7,4 C 86 % 1016,8 hPa 0,0 l/m 0,00 h 0,00 h 0 W/m 1,5 km/h (1 Bft) 96,60 %
19.03.2023 20:00 11,7 C 10,6 C 6,9 C 91 % 1017,8 hPa 1,2 l/m 0,00 h 0,53 h 0 W/m 11,3 km/h (2 Bft) 99,25 %
19.03.2023 21:00 10,4 C 9,4 C 5,5 C 94 % 1018,6 hPa 0,2 l/m 0,00 h 0,20 h 0 W/m 12,4 km/h (3 Bft) 96,16 %
19.03.2023 22:00 9,4 C 8,6 C 4,7 C 94 % 1019,1 hPa 0,0 l/m 0,00 h 0,00 h 0 W/m 10,2 km/h (2 Bft) 97,67 %
19.03.2023 23:00 8,6 C 7,8 C 4,2 C 93 % 1019,4 hPa 0,0 l/m 0,00 h 0,00 h 0 W/m 10,4 km/h (2 Bft) 95,40 %
Min-Datum _ 15.03.23 15.03.23 15.03.23 15.03.23 14.03.23 - - - - 14.03.23 14.03.23
_ Min-Zeit 05:54 05:42 05:02 16:30 06:42 - - - - 05:58 08:14
Minimum _ 2,0 C 1,1 C -1,7 C 53 % 989,7 hPa - - - - 0,0 km/h (0 Bft) 10,64 %
Max-Datum _ 18.03.23 18.03.23 18.03.23 14.03.23 15.03.23 14.03.23 13.03.23 14.03.23 13.03.23 13.03.23 13.03.23
_ Max-Zeit 11:52 11:22 11:20 06:32 20:02 05:00 12:12 02:14 12:42 11:40 00:42
Maximum _ 18,3 C 28,9 C 20,6 C 97 % 1020,4 hPa 3,4 l/m 0,07 h 0,07 h 811 W/m 70,8 km/h
S-SW (8 Bft)
100,00 %
Durchschnitt _ 10,0 C 9,9 C 5,7 C 80 % 1008,9 hPa #15,6 l/m #28:45 h #12:36 h 185 W/m 15,8 km/h (3 Bft) 96,76 %
© 2023 W. Hausmann